sensor_id;sensor_type;location;lat;lon;timestamp;P1;durP1;ratioP1;P2;durP2;ratioP2
18259;SDS011;9256;52.236;5.712;2023-09-19T00:01:33;10.07;;;2.50;;
18259;SDS011;9256;52.236;5.712;2023-09-19T00:04:01;13.05;;;2.60;;
18259;SDS011;9256;52.236;5.712;2023-09-19T00:06:28;12.48;;;2.53;;
18259;SDS011;9256;52.236;5.712;2023-09-19T00:08:56;13.43;;;2.55;;
18259;SDS011;9256;52.236;5.712;2023-09-19T00:11:25;9.90;;;2.42;;
18259;SDS011;9256;52.236;5.712;2023-09-19T00:13:54;16.75;;;2.85;;
18259;SDS011;9256;52.236;5.712;2023-09-19T00:16:24;9.30;;;2.28;;
18259;SDS011;9256;52.236;5.712;2023-09-19T00:18:52;9.95;;;2.75;;
18259;SDS011;9256;52.236;5.712;2023-09-19T00:21:20;11.05;;;2.60;;
18259;SDS011;9256;52.236;5.712;2023-09-19T00:23:47;13.50;;;2.90;;
18259;SDS011;9256;52.236;5.712;2023-09-19T00:26:16;10.27;;;2.50;;
18259;SDS011;9256;52.236;5.712;2023-09-19T00:28:44;13.07;;;3.22;;
18259;SDS011;9256;52.236;5.712;2023-09-19T00:31:10;12.90;;;2.80;;
18259;SDS011;9256;52.236;5.712;2023-09-19T00:33:38;10.10;;;2.60;;
18259;SDS011;9256;52.236;5.712;2023-09-19T00:36:05;8.45;;;2.10;;
18259;SDS011;9256;52.236;5.712;2023-09-19T00:38:33;10.07;;;2.30;;
18259;SDS011;9256;52.236;5.712;2023-09-19T00:41:00;8.68;;;2.20;;
18259;SDS011;9256;52.236;5.712;2023-09-19T00:43:28;9.35;;;2.10;;
18259;SDS011;9256;52.236;5.712;2023-09-19T00:45:59;10.77;;;2.35;;
18259;SDS011;9256;52.236;5.712;2023-09-19T00:48:28;7.60;;;2.30;;
18259;SDS011;9256;52.236;5.712;2023-09-19T00:50:55;12.32;;;2.33;;
18259;SDS011;9256;52.236;5.712;2023-09-19T00:53:25;12.98;;;2.63;;
18259;SDS011;9256;52.236;5.712;2023-09-19T00:55:53;9.30;;;2.20;;
18259;SDS011;9256;52.236;5.712;2023-09-19T00:58:21;12.38;;;2.13;;
18259;SDS011;9256;52.236;5.712;2023-09-19T01:00:48;13.07;;;2.28;;
18259;SDS011;9256;52.236;5.712;2023-09-19T01:03:16;7.65;;;2.08;;
18259;SDS011;9256;52.236;5.712;2023-09-19T01:05:43;9.45;;;2.63;;
18259;SDS011;9256;52.236;5.712;2023-09-19T01:08:10;11.13;;;2.33;;
18259;SDS011;9256;52.236;5.712;2023-09-19T01:10:37;6.20;;;1.73;;
18259;SDS011;9256;52.236;5.712;2023-09-19T01:13:19;9.02;;;2.08;;
18259;SDS011;9256;52.236;5.712;2023-09-19T01:15:54;7.82;;;2.10;;
18259;SDS011;9256;52.236;5.712;2023-09-19T01:18:33;5.60;;;1.90;;
18259;SDS011;9256;52.236;5.712;2023-09-19T01:21:08;6.45;;;1.90;;
18259;SDS011;9256;52.236;5.712;2023-09-19T01:23:49;10.52;;;1.92;;
18259;SDS011;9256;52.236;5.712;2023-09-19T01:26:56;8.38;;;1.73;;
18259;SDS011;9256;52.236;5.712;2023-09-19T01:29:41;8.63;;;2.00;;
18259;SDS011;9256;52.236;5.712;2023-09-19T01:32:13;5.20;;;1.90;;
18259;SDS011;9256;52.236;5.712;2023-09-19T01:34:47;6.15;;;2.10;;
18259;SDS011;9256;52.236;5.712;2023-09-19T01:37:15;8.90;;;2.50;;
18259;SDS011;9256;52.236;5.712;2023-09-19T01:39:45;9.43;;;2.38;;
18259;SDS011;9256;52.236;5.712;2023-09-19T01:42:18;8.88;;;1.98;;
18259;SDS011;9256;52.236;5.712;2023-09-19T01:44:51;11.10;;;2.50;;
18259;SDS011;9256;52.236;5.712;2023-09-19T01:47:28;10.98;;;2.45;;
18259;SDS011;9256;52.236;5.712;2023-09-19T01:50:08;9.90;;;2.30;;
18259;SDS011;9256;52.236;5.712;2023-09-19T01:52:46;11.02;;;2.97;;
18259;SDS011;9256;52.236;5.712;2023-09-19T01:55:15;7.72;;;2.30;;
18259;SDS011;9256;52.236;5.712;2023-09-19T01:57:48;13.40;;;2.55;;
18259;SDS011;9256;52.236;5.712;2023-09-19T02:00:20;14.38;;;2.67;;
18259;SDS011;9256;52.236;5.712;2023-09-19T02:02:50;10.38;;;2.70;;
18259;SDS011;9256;52.236;5.712;2023-09-19T02:05:23;11.63;;;2.90;;
18259;SDS011;9256;52.236;5.712;2023-09-19T02:07:52;11.20;;;2.70;;
18259;SDS011;9256;52.236;5.712;2023-09-19T02:10:20;11.52;;;2.90;;
18259;SDS011;9256;52.236;5.712;2023-09-19T02:12:48;13.82;;;3.20;;
18259;SDS011;9256;52.236;5.712;2023-09-19T02:15:16;15.07;;;3.40;;
18259;SDS011;9256;52.236;5.712;2023-09-19T02:17:43;11.85;;;2.90;;
18259;SDS011;9256;52.236;5.712;2023-09-19T02:20:12;10.95;;;2.70;;
18259;SDS011;9256;52.236;5.712;2023-09-19T02:22:40;11.38;;;3.42;;
18259;SDS011;9256;52.236;5.712;2023-09-19T02:25:08;10.30;;;2.97;;
18259;SDS011;9256;52.236;5.712;2023-09-19T02:27:35;11.93;;;3.30;;
18259;SDS011;9256;52.236;5.712;2023-09-19T02:30:02;12.75;;;2.95;;
18259;SDS011;9256;52.236;5.712;2023-09-19T02:32:31;12.48;;;3.10;;
18259;SDS011;9256;52.236;5.712;2023-09-19T02:35:01;16.20;;;3.38;;
18259;SDS011;9256;52.236;5.712;2023-09-19T02:37:31;15.10;;;3.00;;
18259;SDS011;9256;52.236;5.712;2023-09-19T02:40:00;14.18;;;2.92;;
18259;SDS011;9256;52.236;5.712;2023-09-19T02:42:27;14.18;;;2.78;;
18259;SDS011;9256;52.236;5.712;2023-09-19T02:44:55;16.98;;;2.92;;
18259;SDS011;9256;52.236;5.712;2023-09-19T02:47:22;16.75;;;2.70;;
18259;SDS011;9256;52.236;5.712;2023-09-19T02:49:49;14.32;;;2.60;;
18259;SDS011;9256;52.236;5.712;2023-09-19T02:52:16;15.45;;;2.40;;
18259;SDS011;9256;52.236;5.712;2023-09-19T02:54:44;16.40;;;2.58;;
18259;SDS011;9256;52.236;5.712;2023-09-19T02:57:11;13.98;;;2.45;;
18259;SDS011;9256;52.236;5.712;2023-09-19T02:59:41;14.98;;;2.38;;
18259;SDS011;9256;52.236;5.712;2023-09-19T03:02:09;13.52;;;2.15;;
18259;SDS011;9256;52.236;5.712;2023-09-19T03:04:36;10.55;;;2.10;;
18259;SDS011;9256;52.236;5.712;2023-09-19T03:07:03;11.50;;;2.22;;
18259;SDS011;9256;52.236;5.712;2023-09-19T03:09:31;10.32;;;1.98;;
18259;SDS011;9256;52.236;5.712;2023-09-19T03:11:59;11.68;;;2.35;;
18259;SDS011;9256;52.236;5.712;2023-09-19T03:14:26;13.73;;;1.90;;
18259;SDS011;9256;52.236;5.712;2023-09-19T03:16:55;14.73;;;2.08;;
18259;SDS011;9256;52.236;5.712;2023-09-19T03:19:22;13.05;;;2.10;;
18259;SDS011;9256;52.236;5.712;2023-09-19T03:21:51;15.80;;;2.20;;
18259;SDS011;9256;52.236;5.712;2023-09-19T03:24:18;13.68;;;2.38;;
18259;SDS011;9256;52.236;5.712;2023-09-19T03:26:45;18.15;;;2.25;;
18259;SDS011;9256;52.236;5.712;2023-09-19T03:29:14;10.35;;;1.85;;
18259;SDS011;9256;52.236;5.712;2023-09-19T03:31:42;16.67;;;2.40;;
18259;SDS011;9256;52.236;5.712;2023-09-19T03:34:09;10.30;;;1.92;;
18259;SDS011;9256;52.236;5.712;2023-09-19T03:36:36;18.48;;;2.20;;
18259;SDS011;9256;52.236;5.712;2023-09-19T03:39:03;15.43;;;1.90;;
18259;SDS011;9256;52.236;5.712;2023-09-19T03:41:30;14.60;;;2.67;;
18259;SDS011;9256;52.236;5.712;2023-09-19T03:43:58;14.13;;;2.00;;
18259;SDS011;9256;52.236;5.712;2023-09-19T03:46:26;11.90;;;2.38;;
18259;SDS011;9256;52.236;5.712;2023-09-19T03:48:54;11.18;;;2.17;;
18259;SDS011;9256;52.236;5.712;2023-09-19T03:51:20;15.63;;;1.85;;
18259;SDS011;9256;52.236;5.712;2023-09-19T03:53:47;11.27;;;1.88;;
18259;SDS011;9256;52.236;5.712;2023-09-19T03:56:15;12.68;;;2.00;;
18259;SDS011;9256;52.236;5.712;2023-09-19T03:58:42;7.72;;;1.83;;
18259;SDS011;9256;52.236;5.712;2023-09-19T04:01:09;15.40;;;2.30;;
18259;SDS011;9256;52.236;5.712;2023-09-19T04:03:39;12.55;;;2.10;;
18259;SDS011;9256;52.236;5.712;2023-09-19T04:06:12;14.02;;;2.20;;
18259;SDS011;9256;52.236;5.712;2023-09-19T04:08:39;10.00;;;2.00;;
18259;SDS011;9256;52.236;5.712;2023-09-19T04:11:06;12.45;;;1.70;;
18259;SDS011;9256;52.236;5.712;2023-09-19T04:13:33;10.52;;;1.80;;
18259;SDS011;9256;52.236;5.712;2023-09-19T04:16:00;10.77;;;2.20;;
18259;SDS011;9256;52.236;5.712;2023-09-19T04:18:28;10.98;;;2.00;;
18259;SDS011;9256;52.236;5.712;2023-09-19T04:20:59;12.15;;;2.10;;
18259;SDS011;9256;52.236;5.712;2023-09-19T04:23:27;10.77;;;2.15;;
18259;SDS011;9256;52.236;5.712;2023-09-19T04:25:54;12.63;;;2.15;;
18259;SDS011;9256;52.236;5.712;2023-09-19T04:28:22;11.85;;;2.10;;
18259;SDS011;9256;52.236;5.712;2023-09-19T04:30:49;15.05;;;1.75;;
18259;SDS011;9256;52.236;5.712;2023-09-19T04:33:16;13.50;;;2.00;;
18259;SDS011;9256;52.236;5.712;2023-09-19T04:35:43;9.25;;;1.80;;
18259;SDS011;9256;52.236;5.712;2023-09-19T04:38:11;13.90;;;2.27;;
18259;SDS011;9256;52.236;5.712;2023-09-19T04:40:40;10.60;;;2.33;;
18259;SDS011;9256;52.236;5.712;2023-09-19T04:43:07;8.23;;;1.65;;
18259;SDS011;9256;52.236;5.712;2023-09-19T04:45:34;11.68;;;2.05;;
18259;SDS011;9256;52.236;5.712;2023-09-19T04:48:00;10.57;;;1.88;;
18259;SDS011;9256;52.236;5.712;2023-09-19T04:50:28;15.02;;;2.67;;
18259;SDS011;9256;52.236;5.712;2023-09-19T04:52:55;11.48;;;1.75;;
18259;SDS011;9256;52.236;5.712;2023-09-19T04:55:23;16.00;;;1.90;;
18259;SDS011;9256;52.236;5.712;2023-09-19T04:57:51;11.90;;;2.03;;
18259;SDS011;9256;52.236;5.712;2023-09-19T05:00:21;8.93;;;1.90;;
18259;SDS011;9256;52.236;5.712;2023-09-19T05:02:49;13.70;;;1.90;;
18259;SDS011;9256;52.236;5.712;2023-09-19T05:05:17;7.53;;;1.80;;
18259;SDS011;9256;52.236;5.712;2023-09-19T05:07:45;10.07;;;1.73;;
18259;SDS011;9256;52.236;5.712;2023-09-19T05:10:12;13.25;;;1.83;;
18259;SDS011;9256;52.236;5.712;2023-09-19T05:12:42;8.40;;;1.85;;
18259;SDS011;9256;52.236;5.712;2023-09-19T05:15:12;17.98;;;2.40;;
18259;SDS011;9256;52.236;5.712;2023-09-19T05:17:42;14.93;;;2.10;;
18259;SDS011;9256;52.236;5.712;2023-09-19T05:20:13;9.00;;;2.08;;
18259;SDS011;9256;52.236;5.712;2023-09-19T05:22:49;13.55;;;2.20;;
18259;SDS011;9256;52.236;5.712;2023-09-19T05:25:16;13.38;;;2.05;;
18259;SDS011;9256;52.236;5.712;2023-09-19T05:27:45;15.73;;;2.33;;
18259;SDS011;9256;52.236;5.712;2023-09-19T05:30:12;10.30;;;2.00;;
18259;SDS011;9256;52.236;5.712;2023-09-19T05:32:40;12.45;;;2.40;;
18259;SDS011;9256;52.236;5.712;2023-09-19T05:35:08;17.60;;;2.40;;
18259;SDS011;9256;52.236;5.712;2023-09-19T05:37:38;12.45;;;1.98;;
18259;SDS011;9256;52.236;5.712;2023-09-19T05:40:05;9.90;;;2.50;;
18259;SDS011;9256;52.236;5.712;2023-09-19T05:42:35;14.82;;;1.67;;
18259;SDS011;9256;52.236;5.712;2023-09-19T05:45:04;12.30;;;1.83;;
18259;SDS011;9256;52.236;5.712;2023-09-19T05:47:32;12.80;;;2.08;;
18259;SDS011;9256;52.236;5.712;2023-09-19T05:49:59;11.77;;;2.03;;
18259;SDS011;9256;52.236;5.712;2023-09-19T05:52:26;10.48;;;1.60;;
18259;SDS011;9256;52.236;5.712;2023-09-19T05:54:53;10.00;;;1.85;;
18259;SDS011;9256;52.236;5.712;2023-09-19T05:57:21;10.48;;;2.10;;
18259;SDS011;9256;52.236;5.712;2023-09-19T05:59:49;12.25;;;2.10;;
18259;SDS011;9256;52.236;5.712;2023-09-19T06:02:18;15.90;;;1.95;;
18259;SDS011;9256;52.236;5.712;2023-09-19T06:04:45;13.65;;;1.73;;
18259;SDS011;9256;52.236;5.712;2023-09-19T06:07:12;14.48;;;2.20;;
18259;SDS011;9256;52.236;5.712;2023-09-19T06:09:40;10.77;;;1.75;;
18259;SDS011;9256;52.236;5.712;2023-09-19T06:12:07;7.40;;;1.88;;
18259;SDS011;9256;52.236;5.712;2023-09-19T06:14:34;11.60;;;1.85;;
18259;SDS011;9256;52.236;5.712;2023-09-19T06:17:01;13.82;;;2.30;;
18259;SDS011;9256;52.236;5.712;2023-09-19T06:19:29;7.25;;;1.73;;
18259;SDS011;9256;52.236;5.712;2023-09-19T06:21:57;16.10;;;2.17;;
18259;SDS011;9256;52.236;5.712;2023-09-19T06:24:25;10.50;;;1.80;;
18259;SDS011;9256;52.236;5.712;2023-09-19T06:26:52;12.45;;;1.92;;
18259;SDS011;9256;52.236;5.712;2023-09-19T06:29:20;12.55;;;2.17;;
18259;SDS011;9256;52.236;5.712;2023-09-19T06:31:48;13.70;;;2.23;;
18259;SDS011;9256;52.236;5.712;2023-09-19T06:34:16;14.60;;;1.90;;
18259;SDS011;9256;52.236;5.712;2023-09-19T06:36:44;16.45;;;2.10;;
18259;SDS011;9256;52.236;5.712;2023-09-19T06:39:11;14.27;;;1.80;;
18259;SDS011;9256;52.236;5.712;2023-09-19T06:41:38;14.25;;;1.90;;
18259;SDS011;9256;52.236;5.712;2023-09-19T06:44:06;9.50;;;1.85;;
18259;SDS011;9256;52.236;5.712;2023-09-19T06:46:34;12.75;;;1.55;;
18259;SDS011;9256;52.236;5.712;2023-09-19T06:49:04;12.73;;;1.95;;
18259;SDS011;9256;52.236;5.712;2023-09-19T06:51:32;13.40;;;2.05;;
18259;SDS011;9256;52.236;5.712;2023-09-19T06:54:01;8.48;;;1.63;;
18259;SDS011;9256;52.236;5.712;2023-09-19T06:56:30;14.45;;;2.05;;
18259;SDS011;9256;52.236;5.712;2023-09-19T06:58:58;12.43;;;1.95;;
18259;SDS011;9256;52.236;5.712;2023-09-19T07:01:25;11.25;;;2.10;;
18259;SDS011;9256;52.236;5.712;2023-09-19T07:03:52;11.88;;;1.83;;
18259;SDS011;9256;52.236;5.712;2023-09-19T07:06:19;13.15;;;1.90;;
18259;SDS011;9256;52.236;5.712;2023-09-19T07:08:46;16.00;;;2.25;;
18259;SDS011;9256;52.236;5.712;2023-09-19T07:11:16;13.70;;;2.00;;
18259;SDS011;9256;52.236;5.712;2023-09-19T07:13:43;14.02;;;1.75;;
18259;SDS011;9256;52.236;5.712;2023-09-19T07:16:10;10.50;;;1.83;;
18259;SDS011;9256;52.236;5.712;2023-09-19T07:18:38;12.30;;;2.10;;
18259;SDS011;9256;52.236;5.712;2023-09-19T07:21:05;12.23;;;2.17;;
18259;SDS011;9256;52.236;5.712;2023-09-19T07:23:32;20.20;;;2.47;;
18259;SDS011;9256;52.236;5.712;2023-09-19T07:26:00;11.48;;;1.98;;
18259;SDS011;9256;52.236;5.712;2023-09-19T07:28:31;13.30;;;1.85;;
18259;SDS011;9256;52.236;5.712;2023-09-19T07:31:01;12.23;;;1.92;;
18259;SDS011;9256;52.236;5.712;2023-09-19T07:33:30;19.13;;;2.03;;
18259;SDS011;9256;52.236;5.712;2023-09-19T07:35:57;10.70;;;1.80;;
18259;SDS011;9256;52.236;5.712;2023-09-19T07:38:24;16.17;;;2.10;;
18259;SDS011;9256;52.236;5.712;2023-09-19T07:40:52;9.98;;;1.70;;
18259;SDS011;9256;52.236;5.712;2023-09-19T07:43:20;13.18;;;1.80;;
18259;SDS011;9256;52.236;5.712;2023-09-19T07:45:49;12.95;;;2.60;;
18259;SDS011;9256;52.236;5.712;2023-09-19T07:48:15;11.05;;;1.85;;
18259;SDS011;9256;52.236;5.712;2023-09-19T07:50:42;16.15;;;2.10;;
18259;SDS011;9256;52.236;5.712;2023-09-19T07:53:09;12.45;;;1.70;;
18259;SDS011;9256;52.236;5.712;2023-09-19T07:55:38;15.95;;;2.15;;
18259;SDS011;9256;52.236;5.712;2023-09-19T07:58:06;12.13;;;1.88;;
18259;SDS011;9256;52.236;5.712;2023-09-19T08:00:33;12.10;;;1.90;;
18259;SDS011;9256;52.236;5.712;2023-09-19T08:03:01;18.60;;;2.03;;
18259;SDS011;9256;52.236;5.712;2023-09-19T08:05:29;12.60;;;2.40;;
18259;SDS011;9256;52.236;5.712;2023-09-19T08:07:56;12.98;;;2.03;;
18259;SDS011;9256;52.236;5.712;2023-09-19T08:10:24;13.45;;;1.73;;
18259;SDS011;9256;52.236;5.712;2023-09-19T08:12:52;14.73;;;1.92;;
18259;SDS011;9256;52.236;5.712;2023-09-19T08:15:23;15.50;;;2.17;;
18259;SDS011;9256;52.236;5.712;2023-09-19T08:17:50;14.35;;;1.90;;
18259;SDS011;9256;52.236;5.712;2023-09-19T08:20:18;13.05;;;2.05;;
18259;SDS011;9256;52.236;5.712;2023-09-19T08:22:46;11.25;;;1.73;;
18259;SDS011;9256;52.236;5.712;2023-09-19T08:25:14;17.20;;;2.63;;
18259;SDS011;9256;52.236;5.712;2023-09-19T08:27:43;16.17;;;2.10;;
18259;SDS011;9256;52.236;5.712;2023-09-19T08:30:14;11.02;;;2.03;;
18259;SDS011;9256;52.236;5.712;2023-09-19T08:32:41;11.38;;;1.90;;
18259;SDS011;9256;52.236;5.712;2023-09-19T08:35:08;14.03;;;2.20;;
18259;SDS011;9256;52.236;5.712;2023-09-19T08:37:37;13.13;;;2.15;;
18259;SDS011;9256;52.236;5.712;2023-09-19T08:40:05;14.00;;;2.15;;
18259;SDS011;9256;52.236;5.712;2023-09-19T08:42:46;9.93;;;1.70;;
18259;SDS011;9256;52.236;5.712;2023-09-19T08:45:15;13.75;;;2.42;;
18259;SDS011;9256;52.236;5.712;2023-09-19T08:47:45;11.32;;;2.08;;
18259;SDS011;9256;52.236;5.712;2023-09-19T08:50:18;14.75;;;2.20;;
18259;SDS011;9256;52.236;5.712;2023-09-19T08:52:48;14.70;;;2.05;;
18259;SDS011;9256;52.236;5.712;2023-09-19T08:55:19;15.63;;;2.63;;
18259;SDS011;9256;52.236;5.712;2023-09-19T08:57:51;13.02;;;2.38;;
18259;SDS011;9256;52.236;5.712;2023-09-19T09:00:24;15.13;;;2.13;;
18259;SDS011;9256;52.236;5.712;2023-09-19T09:02:54;19.98;;;2.60;;
18259;SDS011;9256;52.236;5.712;2023-09-19T09:05:21;14.18;;;2.50;;
18259;SDS011;9256;52.236;5.712;2023-09-19T09:07:51;15.68;;;2.45;;
18259;SDS011;9256;52.236;5.712;2023-09-19T09:10:20;17.73;;;2.30;;
18259;SDS011;9256;52.236;5.712;2023-09-19T09:12:48;13.85;;;2.35;;
18259;SDS011;9256;52.236;5.712;2023-09-19T09:15:17;12.20;;;2.22;;
18259;SDS011;9256;52.236;5.712;2023-09-19T09:17:47;13.52;;;1.95;;
18259;SDS011;9256;52.236;5.712;2023-09-19T09:20:15;13.50;;;2.20;;
18259;SDS011;9256;52.236;5.712;2023-09-19T09:22:51;18.55;;;2.65;;
18259;SDS011;9256;52.236;5.712;2023-09-19T09:25:19;17.88;;;3.13;;
18259;SDS011;9256;52.236;5.712;2023-09-19T09:27:48;13.38;;;2.08;;
18259;SDS011;9256;52.236;5.712;2023-09-19T09:30:32;12.73;;;2.17;;
18259;SDS011;9256;52.236;5.712;2023-09-19T09:33:07;14.32;;;1.95;;
18259;SDS011;9256;52.236;5.712;2023-09-19T09:35:36;13.00;;;1.80;;
18259;SDS011;9256;52.236;5.712;2023-09-19T09:38:05;16.05;;;2.08;;
18259;SDS011;9256;52.236;5.712;2023-09-19T09:40:45;9.98;;;2.20;;
18259;SDS011;9256;52.236;5.712;2023-09-19T09:43:27;9.25;;;1.67;;
18259;SDS011;9256;52.236;5.712;2023-09-19T09:46:12;9.63;;;2.08;;
18259;SDS011;9256;52.236;5.712;2023-09-19T09:49:01;13.95;;;2.10;;
18259;SDS011;9256;52.236;5.712;2023-09-19T09:51:58;10.10;;;1.60;;
18259;SDS011;9256;52.236;5.712;2023-09-19T09:54:31;13.02;;;1.67;;
18259;SDS011;9256;52.236;5.712;2023-09-19T09:57:03;11.50;;;1.85;;
18259;SDS011;9256;52.236;5.712;2023-09-19T10:02:44;11.30;;;1.88;;
18259;SDS011;9256;52.236;5.712;2023-09-19T10:05:12;12.98;;;2.00;;
18259;SDS011;9256;52.236;5.712;2023-09-19T10:07:46;10.32;;;1.88;;
18259;SDS011;9256;52.236;5.712;2023-09-19T10:10:16;12.38;;;1.73;;
18259;SDS011;9256;52.236;5.712;2023-09-19T10:13:03;11.13;;;2.10;;
18259;SDS011;9256;52.236;5.712;2023-09-19T10:15:32;10.65;;;1.58;;
18259;SDS011;9256;52.236;5.712;2023-09-19T10:18:01;11.85;;;2.30;;
18259;SDS011;9256;52.236;5.712;2023-09-19T10:20:33;10.20;;;1.58;;
18259;SDS011;9256;52.236;5.712;2023-09-19T10:23:05;11.25;;;1.85;;
18259;SDS011;9256;52.236;5.712;2023-09-19T10:25:37;13.50;;;2.13;;
18259;SDS011;9256;52.236;5.712;2023-09-19T10:28:06;10.88;;;1.77;;
18259;SDS011;9256;52.236;5.712;2023-09-19T10:30:36;10.43;;;1.83;;
18259;SDS011;9256;52.236;5.712;2023-09-19T10:33:08;11.23;;;1.48;;
18259;SDS011;9256;52.236;5.712;2023-09-19T10:35:38;12.13;;;1.60;;
18259;SDS011;9256;52.236;5.712;2023-09-19T10:38:06;14.98;;;1.95;;
18259;SDS011;9256;52.236;5.712;2023-09-19T10:40:37;13.10;;;1.70;;
18259;SDS011;9256;52.236;5.712;2023-09-19T10:43:11;14.65;;;1.80;;
18259;SDS011;9256;52.236;5.712;2023-09-19T10:45:40;10.77;;;1.75;;
18259;SDS011;9256;52.236;5.712;2023-09-19T10:48:09;10.43;;;1.75;;
18259;SDS011;9256;52.236;5.712;2023-09-19T10:50:41;11.63;;;1.70;;
18259;SDS011;9256;52.236;5.712;2023-09-19T10:53:14;9.35;;;1.95;;
18259;SDS011;9256;52.236;5.712;2023-09-19T10:55:49;11.73;;;1.70;;
18259;SDS011;9256;52.236;5.712;2023-09-19T10:58:26;8.63;;;1.50;;
18259;SDS011;9256;52.236;5.712;2023-09-19T11:00:55;14.50;;;1.95;;
18259;SDS011;9256;52.236;5.712;2023-09-19T11:03:27;11.18;;;2.10;;
18259;SDS011;9256;52.236;5.712;2023-09-19T11:06:03;10.23;;;1.70;;
18259;SDS011;9256;52.236;5.712;2023-09-19T11:11:53;13.18;;;1.80;;
18259;SDS011;9256;52.236;5.712;2023-09-19T11:14:41;10.73;;;2.03;;
18259;SDS011;9256;52.236;5.712;2023-09-19T11:20:23;7.38;;;1.73;;
18259;SDS011;9256;52.236;5.712;2023-09-19T11:25:52;11.07;;;1.90;;
18259;SDS011;9256;52.236;5.712;2023-09-19T11:28:34;10.40;;;2.00;;
18259;SDS011;9256;52.236;5.712;2023-09-19T11:37:18;8.98;;;1.65;;
18259;SDS011;9256;52.236;5.712;2023-09-19T11:40:45;10.07;;;2.10;;
18259;SDS011;9256;52.236;5.712;2023-09-19T11:43:30;12.93;;;1.77;;
18259;SDS011;9256;52.236;5.712;2023-09-19T11:46:06;11.40;;;2.03;;
18259;SDS011;9256;52.236;5.712;2023-09-19T11:48:40;5.55;;;1.58;;
18259;SDS011;9256;52.236;5.712;2023-09-19T11:51:10;8.18;;;1.50;;
18259;SDS011;9256;52.236;5.712;2023-09-19T11:53:44;8.57;;;1.70;;
18259;SDS011;9256;52.236;5.712;2023-09-19T11:56:13;10.13;;;1.60;;
18259;SDS011;9256;52.236;5.712;2023-09-19T11:58:42;9.52;;;2.10;;
18259;SDS011;9256;52.236;5.712;2023-09-19T12:01:13;8.15;;;1.92;;
18259;SDS011;9256;52.236;5.712;2023-09-19T12:03:46;7.70;;;1.52;;
18259;SDS011;9256;52.236;5.712;2023-09-19T12:06:16;6.53;;;1.38;;
18259;SDS011;9256;52.236;5.712;2023-09-19T12:08:43;7.28;;;1.42;;
18259;SDS011;9256;52.236;5.712;2023-09-19T12:11:12;7.83;;;1.40;;
18259;SDS011;9256;52.236;5.712;2023-09-19T12:13:41;9.82;;;1.60;;
18259;SDS011;9256;52.236;5.712;2023-09-19T12:16:15;8.05;;;1.58;;
18259;SDS011;9256;52.236;5.712;2023-09-19T12:18:46;8.02;;;1.33;;
18259;SDS011;9256;52.236;5.712;2023-09-19T12:21:25;6.90;;;1.40;;
18259;SDS011;9256;52.236;5.712;2023-09-19T12:23:58;8.55;;;1.25;;
18259;SDS011;9256;52.236;5.712;2023-09-19T12:26:26;6.85;;;1.27;;
18259;SDS011;9256;52.236;5.712;2023-09-19T12:28:54;8.15;;;1.40;;
18259;SDS011;9256;52.236;5.712;2023-09-19T12:31:23;6.80;;;1.08;;
18259;SDS011;9256;52.236;5.712;2023-09-19T12:33:54;5.93;;;1.10;;
18259;SDS011;9256;52.236;5.712;2023-09-19T12:36:22;6.35;;;1.00;;
18259;SDS011;9256;52.236;5.712;2023-09-19T12:38:55;4.65;;;0.98;;
18259;SDS011;9256;52.236;5.712;2023-09-19T12:41:24;7.22;;;1.10;;
18259;SDS011;9256;52.236;5.712;2023-09-19T12:43:51;5.07;;;0.90;;
18259;SDS011;9256;52.236;5.712;2023-09-19T12:46:20;6.68;;;1.05;;
18259;SDS011;9256;52.236;5.712;2023-09-19T12:48:53;4.53;;;1.10;;
18259;SDS011;9256;52.236;5.712;2023-09-19T12:51:43;5.38;;;1.10;;
18259;SDS011;9256;52.236;5.712;2023-09-19T12:54:11;4.68;;;0.90;;
18259;SDS011;9256;52.236;5.712;2023-09-19T12:56:40;5.55;;;0.90;;
18259;SDS011;9256;52.236;5.712;2023-09-19T12:59:09;4.22;;;0.98;;
18259;SDS011;9256;52.236;5.712;2023-09-19T13:01:38;5.93;;;1.00;;
18259;SDS011;9256;52.236;5.712;2023-09-19T13:04:11;5.93;;;1.23;;
18259;SDS011;9256;52.236;5.712;2023-09-19T13:06:44;4.22;;;0.90;;
18259;SDS011;9256;52.236;5.712;2023-09-19T13:09:13;6.18;;;1.13;;
18259;SDS011;9256;52.236;5.712;2023-09-19T13:11:41;5.88;;;1.00;;
18259;SDS011;9256;52.236;5.712;2023-09-19T13:14:13;5.30;;;0.90;;
18259;SDS011;9256;52.236;5.712;2023-09-19T13:16:58;4.68;;;1.20;;
18259;SDS011;9256;52.236;5.712;2023-09-19T13:19:38;5.05;;;1.10;;
18259;SDS011;9256;52.236;5.712;2023-09-19T13:25:07;5.13;;;1.00;;
18259;SDS011;9256;52.236;5.712;2023-09-19T13:27:39;5.18;;;1.00;;
18259;SDS011;9256;52.236;5.712;2023-09-19T13:30:07;7.10;;;1.15;;
18259;SDS011;9256;52.236;5.712;2023-09-19T13:32:35;4.85;;;1.13;;
18259;SDS011;9256;52.236;5.712;2023-09-19T13:35:06;6.20;;;1.13;;
18259;SDS011;9256;52.236;5.712;2023-09-19T13:37:34;3.80;;;0.90;;
18259;SDS011;9256;52.236;5.712;2023-09-19T13:40:04;3.90;;;0.80;;
18259;SDS011;9256;52.236;5.712;2023-09-19T13:42:31;7.55;;;1.08;;
18259;SDS011;9256;52.236;5.712;2023-09-19T13:44:58;8.85;;;1.20;;
18259;SDS011;9256;52.236;5.712;2023-09-19T13:47:25;5.38;;;1.10;;
18259;SDS011;9256;52.236;5.712;2023-09-19T13:49:53;9.57;;;1.10;;
18259;SDS011;9256;52.236;5.712;2023-09-19T13:52:22;4.93;;;1.00;;
18259;SDS011;9256;52.236;5.712;2023-09-19T13:54:49;3.05;;;0.90;;
18259;SDS011;9256;52.236;5.712;2023-09-19T13:57:17;7.43;;;1.02;;
18259;SDS011;9256;52.236;5.712;2023-09-19T13:59:45;4.43;;;1.00;;
18259;SDS011;9256;52.236;5.712;2023-09-19T14:02:12;3.65;;;0.90;;
18259;SDS011;9256;52.236;5.712;2023-09-19T14:04:40;5.65;;;1.08;;
18259;SDS011;9256;52.236;5.712;2023-09-19T14:07:07;3.90;;;0.80;;
18259;SDS011;9256;52.236;5.712;2023-09-19T14:09:35;5.55;;;1.02;;
18259;SDS011;9256;52.236;5.712;2023-09-19T14:12:03;4.22;;;0.88;;
18259;SDS011;9256;52.236;5.712;2023-09-19T14:14:30;5.47;;;0.93;;
18259;SDS011;9256;52.236;5.712;2023-09-19T14:16:57;5.18;;;1.08;;
18259;SDS011;9256;52.236;5.712;2023-09-19T14:19:25;4.68;;;0.95;;
18259;SDS011;9256;52.236;5.712;2023-09-19T14:21:52;4.50;;;0.90;;
18259;SDS011;9256;52.236;5.712;2023-09-19T14:24:20;7.30;;;1.00;;
18259;SDS011;9256;52.236;5.712;2023-09-19T14:26:49;4.38;;;0.90;;
18259;SDS011;9256;52.236;5.712;2023-09-19T14:29:16;4.13;;;0.70;;
18259;SDS011;9256;52.236;5.712;2023-09-19T14:31:44;3.90;;;0.88;;
18259;SDS011;9256;52.236;5.712;2023-09-19T14:34:11;4.60;;;1.00;;
18259;SDS011;9256;52.236;5.712;2023-09-19T14:36:40;6.25;;;1.55;;
18259;SDS011;9256;52.236;5.712;2023-09-19T14:39:06;6.47;;;1.00;;
18259;SDS011;9256;52.236;5.712;2023-09-19T14:41:34;3.30;;;0.90;;
18259;SDS011;9256;52.236;5.712;2023-09-19T14:44:03;5.05;;;1.05;;
18259;SDS011;9256;52.236;5.712;2023-09-19T14:46:31;7.88;;;1.00;;
18259;SDS011;9256;52.236;5.712;2023-09-19T14:48:58;4.50;;;0.88;;
18259;SDS011;9256;52.236;5.712;2023-09-19T14:51:28;4.70;;;1.00;;
18259;SDS011;9256;52.236;5.712;2023-09-19T14:53:56;6.70;;;1.00;;
18259;SDS011;9256;52.236;5.712;2023-09-19T14:56:23;5.25;;;1.20;;
18259;SDS011;9256;52.236;5.712;2023-09-19T14:58:50;5.10;;;1.10;;
18259;SDS011;9256;52.236;5.712;2023-09-19T15:01:19;4.95;;;1.20;;
18259;SDS011;9256;52.236;5.712;2023-09-19T15:03:47;5.43;;;1.00;;
18259;SDS011;9256;52.236;5.712;2023-09-19T15:06:14;5.45;;;1.23;;
18259;SDS011;9256;52.236;5.712;2023-09-19T15:08:44;5.22;;;1.10;;
18259;SDS011;9256;52.236;5.712;2023-09-19T15:11:12;3.88;;;1.10;;
18259;SDS011;9256;52.236;5.712;2023-09-19T15:13:41;4.90;;;1.20;;
18259;SDS011;9256;52.236;5.712;2023-09-19T15:16:09;6.65;;;1.05;;
18259;SDS011;9256;52.236;5.712;2023-09-19T15:18:38;3.63;;;0.98;;
18259;SDS011;9256;52.236;5.712;2023-09-19T15:21:07;6.35;;;1.40;;
18259;SDS011;9256;52.236;5.712;2023-09-19T15:23:35;7.80;;;1.27;;
18259;SDS011;9256;52.236;5.712;2023-09-19T15:26:03;5.38;;;1.42;;
18259;SDS011;9256;52.236;5.712;2023-09-19T15:28:32;4.07;;;1.05;;
18259;SDS011;9256;52.236;5.712;2023-09-19T15:30:59;6.72;;;1.30;;